createdAt,value
2017-09-03T00:00:34.626Z,1018.375
2017-09-03T00:09:07.931Z,1018.320
2017-09-03T00:11:51.444Z,1018.303
2017-09-03T00:14:45.251Z,1018.269
2017-09-03T00:17:39.569Z,1018.273
2017-09-03T00:27:21.033Z,1018.388
2017-09-03T00:30:04.383Z,1018.383
2017-09-03T00:37:47.211Z,1018.369
2017-09-03T00:47:13.275Z,1018.307
2017-09-03T00:50:07.155Z,1018.313
2017-09-03T00:53:01.534Z,1018.302
2017-09-03T01:04:35.825Z,1018.318
2017-09-03T01:07:19.124Z,1018.297
2017-09-03T01:10:12.843Z,1018.263
2017-09-03T01:18:57.436Z,1018.215
2017-09-03T01:21:40.808Z,1018.169
2017-09-03T01:26:27.618Z,1018.089
2017-09-03T01:29:11.779Z,1018.045
2017-09-03T01:38:07.490Z,1018.034
2017-09-03T01:42:21.234Z,1018.012
2017-09-03T01:45:27.975Z,1017.971
2017-09-03T01:48:15.131Z,1017.948
2017-09-03T02:05:48.827Z,1017.884
2017-09-03T02:09:16.851Z,1017.905
2017-09-03T02:19:12.672Z,1017.853
2017-09-03T02:21:55.987Z,1017.866
2017-09-03T02:24:49.627Z,1017.889
2017-09-03T02:39:35.875Z,1017.930
2017-09-03T02:42:19.167Z,1017.933
2017-09-03T02:45:12.736Z,1017.896
2017-09-03T02:48:06.977Z,1017.870
2017-09-03T02:59:30.004Z,1017.901
2017-09-03T03:02:13.199Z,1017.893
2017-09-03T03:05:06.886Z,1017.925
2017-09-03T03:08:01.114Z,1017.940
2017-09-03T03:19:01.640Z,1017.902
2017-09-03T03:21:45.223Z,1017.883
2017-09-03T03:24:39.120Z,1017.852
2017-09-03T03:33:35.098Z,1017.783
2017-09-03T03:36:18.858Z,1017.766
2017-09-03T03:39:12.794Z,1017.787
2017-09-03T03:49:16.736Z,1017.760
2017-09-03T03:52:00.353Z,1017.739
2017-09-03T03:54:54.266Z,1017.739
2017-09-03T03:57:48.717Z,1017.717
2017-09-03T04:00:43.392Z,1017.759
2017-09-03T04:12:40.623Z,1017.582
2017-09-03T04:15:24.260Z,1017.557
2017-09-03T04:18:18.182Z,1017.591
2017-09-03T04:21:23.872Z,1017.632
2017-09-03T04:37:02.221Z,1017.595
2017-09-03T04:39:45.805Z,1017.591
2017-09-03T04:42:39.548Z,1017.628
2017-09-03T04:45:33.925Z,1017.624
2017-09-03T05:10:13.411Z,1017.564
2017-09-03T05:30:15.569Z,1017.434
2017-09-03T05:32:58.835Z,1017.401
2017-09-03T05:52:38.239Z,1017.248
2017-09-03T06:30:00.691Z,1017.239
2017-09-03T06:46:06.326Z,1017.369
2017-09-03T06:48:49.753Z,1017.379
2017-09-03T07:00:23.271Z,1017.474
2017-09-03T07:03:06.789Z,1017.462
2017-09-03T07:16:22.036Z,1017.510
2017-09-03T07:19:05.518Z,1017.531
2017-09-03T07:21:59.332Z,1017.513
2017-09-03T07:24:53.816Z,1017.521
2017-09-03T07:35:54.369Z,1017.575
2017-09-03T07:38:38.048Z,1017.599
2017-09-03T07:41:32.013Z,1017.577
2017-09-03T07:44:26.761Z,1017.551
2017-09-03T07:53:11.764Z,1017.485
2017-09-03T07:55:55.496Z,1017.522
2017-09-03T08:02:13.084Z,1017.496
2017-09-03T08:04:57.149Z,1017.499
2017-09-03T08:07:51.291Z,1017.503
2017-09-03T08:10:45.942Z,1017.489
2017-09-03T08:14:03.518Z,1017.485
2017-09-03T08:18:21.921Z,1017.499
2017-09-03T08:21:06.941Z,1017.450
2017-09-03T08:27:32.893Z,1017.426
2017-09-03T08:32:31.893Z,1017.389
2017-09-03T08:35:16.565Z,1017.338
2017-09-03T08:38:11.054Z,1017.254
2017-09-03T08:41:05.966Z,1017.239
2017-09-03T08:44:00.891Z,1017.236
2017-09-03T08:49:50.978Z,1017.213
2017-09-03T08:52:46.268Z,1017.219
2017-09-03T08:55:41.403Z,1017.218
2017-09-03T08:58:36.603Z,1017.226
2017-09-03T09:01:31.693Z,1017.200
2017-09-03T09:04:26.852Z,1017.210
2017-09-03T09:07:21.974Z,1017.194
2017-09-03T09:10:16.991Z,1017.175
2017-09-03T09:13:11.983Z,1017.124
2017-09-03T09:16:07.061Z,1017.138
2017-09-03T09:19:01.994Z,1017.151
2017-09-03T09:21:57.316Z,1017.108
2017-09-03T09:24:52.348Z,1017.103
2017-09-03T09:27:47.416Z,1017.096
2017-09-03T09:30:42.446Z,1017.119
2017-09-03T09:33:37.491Z,1017.095
2017-09-03T09:36:32.623Z,1017.092
2017-09-03T09:39:27.757Z,1017.083
2017-09-03T09:42:22.809Z,1017.070
2017-09-03T09:45:17.934Z,1017.048
2017-09-03T09:48:12.969Z,1017.043
2017-09-03T09:51:08.008Z,1016.971
2017-09-03T09:54:02.984Z,1016.906
2017-09-03T09:56:58.088Z,1016.869
2017-09-03T09:59:53.142Z,1016.845
2017-09-03T10:02:48.311Z,1016.830
2017-09-03T10:05:43.487Z,1016.758
2017-09-03T10:08:39.025Z,1016.714
2017-09-03T10:11:34.316Z,1016.740
2017-09-03T10:14:29.569Z,1016.751
2017-09-03T10:17:24.801Z,1016.712
2017-09-03T10:20:19.983Z,1016.761
2017-09-03T10:23:14.989Z,1016.775
2017-09-03T10:26:10.022Z,1016.761
2017-09-03T10:29:05.037Z,1016.751
2017-09-03T10:32:00.059Z,1016.735
2017-09-03T10:34:55.150Z,1016.737
2017-09-03T10:37:50.170Z,1016.727
2017-09-03T10:40:45.245Z,1016.721
2017-09-03T10:43:40.301Z,1016.692
2017-09-03T10:46:35.253Z,1016.679
2017-09-03T10:49:30.335Z,1016.658
2017-09-03T10:52:25.412Z,1016.631
2017-09-03T10:55:20.494Z,1016.575
2017-09-03T10:58:15.539Z,1016.500
2017-09-03T11:01:10.526Z,1016.431
2017-09-03T11:04:05.679Z,1016.372
2017-09-03T11:07:00.870Z,1016.382
2017-09-03T11:09:56.031Z,1016.385
2017-09-03T11:12:51.251Z,1016.340
2017-09-03T11:15:46.584Z,1016.301
2017-09-03T11:18:41.450Z,1016.254
2017-09-03T11:21:36.473Z,1016.217
2017-09-03T11:24:31.503Z,1016.181
2017-09-03T11:27:26.598Z,1016.158
2017-09-03T11:30:21.668Z,1016.186
2017-09-03T11:33:16.696Z,1016.122
2017-09-03T11:36:11.780Z,1016.098
2017-09-03T11:39:06.892Z,1016.121
2017-09-03T11:42:01.992Z,1016.073
2017-09-03T11:44:57.205Z,1016.069
2017-09-03T11:47:52.213Z,1016.016
2017-09-03T11:50:47.318Z,1015.995
2017-09-03T11:53:42.509Z,1015.940
2017-09-03T11:56:37.495Z,1015.907
2017-09-03T11:59:32.728Z,1015.849
2017-09-03T12:02:27.712Z,1015.825
2017-09-03T12:05:22.743Z,1015.842
2017-09-03T12:08:17.786Z,1015.801
2017-09-03T12:11:12.862Z,1015.755
2017-09-03T12:14:07.887Z,1015.691
2017-09-03T12:17:02.939Z,1015.661
2017-09-03T12:19:57.897Z,1015.646
2017-09-03T12:22:53.017Z,1015.634
2017-09-03T12:25:48.165Z,1015.651
2017-09-03T12:28:43.206Z,1015.631
2017-09-03T12:31:38.212Z,1015.598
2017-09-03T12:34:33.329Z,1015.543
2017-09-03T12:37:28.267Z,1015.495
2017-09-03T12:40:23.341Z,1015.461
2017-09-03T12:43:18.341Z,1015.459
2017-09-03T12:46:13.377Z,1015.451
2017-09-03T12:49:08.394Z,1015.435
2017-09-03T12:52:03.457Z,1015.425
2017-09-03T12:54:58.481Z,1015.490
2017-09-03T12:57:53.397Z,1015.465
2017-09-03T13:00:48.347Z,1015.406
2017-09-03T13:03:43.441Z,1015.376
2017-09-03T13:06:38.437Z,1015.365
2017-09-03T13:09:33.548Z,1015.330
2017-09-03T13:15:23.773Z,1015.291
2017-09-03T13:18:18.805Z,1015.229
2017-09-03T13:21:13.887Z,1015.194
2017-09-03T13:24:08.855Z,1015.121
2017-09-03T13:27:03.863Z,1015.080
2017-09-03T13:29:58.943Z,1015.090
2017-09-03T13:32:54.006Z,1015.067
2017-09-03T13:35:49.008Z,1015.082
2017-09-03T13:38:44.194Z,1015.082
2017-09-03T13:41:39.189Z,1015.060
2017-09-03T13:44:34.234Z,1015.078
2017-09-03T13:47:29.218Z,1015.046
2017-09-03T13:50:24.285Z,1015.020
2017-09-03T13:53:19.353Z,1015.037
2017-09-03T13:56:14.577Z,1015.007
2017-09-03T13:59:09.367Z,1015.023
2017-09-03T14:02:04.365Z,1015.013
2017-09-03T14:04:59.439Z,1014.975
2017-09-03T14:07:54.495Z,1014.934
2017-09-03T14:10:49.457Z,1014.878
2017-09-03T14:16:39.456Z,1014.886
2017-09-03T14:19:34.461Z,1014.889
2017-09-03T14:22:29.510Z,1014.863
2017-09-03T14:25:24.505Z,1014.896
2017-09-03T14:28:19.661Z,1014.880
2017-09-03T14:31:14.619Z,1014.866
2017-09-03T14:34:09.695Z,1014.879
2017-09-03T14:39:59.854Z,1014.875
2017-09-03T14:42:54.886Z,1014.872
2017-09-03T14:45:49.919Z,1014.892
2017-09-03T14:48:44.938Z,1014.877
2017-09-03T14:51:39.890Z,1014.868
2017-09-03T14:54:34.975Z,1014.873
2017-09-03T14:57:30.034Z,1014.833
2017-09-03T15:00:25.102Z,1014.844
2017-09-03T15:03:20.116Z,1014.828
2017-09-03T15:06:15.153Z,1014.837
2017-09-03T15:09:10.159Z,1014.878
2017-09-03T15:12:05.243Z,1014.900
2017-09-03T15:15:00.332Z,1014.855
2017-09-03T15:17:55.343Z,1014.888
2017-09-03T15:20:50.365Z,1014.877
2017-09-03T15:23:45.433Z,1014.884
2017-09-03T15:26:40.473Z,1014.834
2017-09-03T15:29:35.483Z,1014.830
2017-09-03T15:32:30.531Z,1014.751
2017-09-03T15:35:25.664Z,1014.738
2017-09-03T15:41:15.845Z,1014.789
2017-09-03T15:44:10.950Z,1014.814
2017-09-03T15:47:05.985Z,1014.870
2017-09-03T15:50:00.997Z,1014.906
2017-09-03T15:52:55.972Z,1014.916
2017-09-03T15:55:50.952Z,1014.921
2017-09-03T15:58:46.011Z,1014.886
2017-09-03T16:01:41.008Z,1014.886
2017-09-03T16:04:36.086Z,1014.916
2017-09-03T16:07:31.083Z,1014.907
2017-09-03T16:10:26.144Z,1014.923
2017-09-03T16:13:21.253Z,1014.938
2017-09-03T16:16:16.319Z,1014.964
2017-09-03T16:19:11.379Z,1015.010
2017-09-03T16:22:06.429Z,1015.024
2017-09-03T16:25:01.403Z,1015.039
2017-09-03T16:27:56.445Z,1015.000
2017-09-03T16:30:51.441Z,1014.988
2017-09-03T16:33:46.502Z,1015.031
2017-09-03T16:36:41.521Z,1015.026
2017-09-03T16:39:36.518Z,1015.071
2017-09-03T16:42:31.470Z,1015.029
2017-09-03T16:45:26.576Z,1015.009
2017-09-03T16:48:21.937Z,1015.006
2017-09-03T16:51:16.978Z,1014.962
2017-09-03T16:54:11.945Z,1014.955
2017-09-03T16:57:07.040Z,1014.946
2017-09-03T17:00:02.175Z,1014.954
2017-09-03T17:02:57.213Z,1014.961
2017-09-03T17:05:52.258Z,1014.992
2017-09-03T17:08:47.339Z,1015.007
2017-09-03T17:11:42.440Z,1015.013
2017-09-03T17:14:37.569Z,1015.020
2017-09-03T17:17:32.580Z,1015.041
2017-09-03T17:20:27.685Z,1015.091
2017-09-03T17:23:22.809Z,1015.120
2017-09-03T17:26:17.810Z,1015.099
2017-09-03T17:29:12.777Z,1015.126
2017-09-03T17:32:07.869Z,1015.151
2017-09-03T17:35:02.992Z,1015.174
2017-09-03T17:37:58.060Z,1015.239
2017-09-03T17:40:53.076Z,1015.284
2017-09-03T17:43:48.204Z,1015.323
2017-09-03T17:46:43.231Z,1015.350
2017-09-03T17:49:38.314Z,1015.338
2017-09-03T17:52:33.436Z,1015.339
2017-09-03T17:55:28.452Z,1015.363
2017-09-03T17:58:23.573Z,1015.377
2017-09-03T18:01:18.600Z,1015.405
2017-09-03T18:04:13.656Z,1015.373
2017-09-03T18:10:04.025Z,1015.398
2017-09-03T18:12:58.970Z,1015.417
2017-09-03T18:15:53.940Z,1015.373
2017-09-03T18:18:48.912Z,1015.356
2017-09-03T18:21:43.955Z,1015.365
2017-09-03T18:24:39.204Z,1015.408
2017-09-03T18:27:34.157Z,1015.416
2017-09-03T18:30:29.179Z,1015.443
2017-09-03T18:33:24.213Z,1015.477
2017-09-03T18:36:19.251Z,1015.466
2017-09-03T18:39:14.315Z,1015.452
2017-09-03T18:42:09.270Z,1015.432
2017-09-03T18:45:04.335Z,1015.393
2017-09-03T18:47:59.396Z,1015.429
2017-09-03T18:50:54.503Z,1015.470
2017-09-03T18:53:49.581Z,1015.511
2017-09-03T18:56:44.648Z,1015.510
2017-09-03T18:59:39.569Z,1015.527
2017-09-03T19:02:34.545Z,1015.563
2017-09-03T19:05:29.603Z,1015.555
2017-09-03T19:08:24.557Z,1015.532
2017-09-03T19:11:19.666Z,1015.537
2017-09-03T19:14:14.697Z,1015.548
2017-09-03T19:17:09.688Z,1015.548
2017-09-03T19:20:04.731Z,1015.587
2017-09-03T19:22:59.693Z,1015.606
2017-09-03T19:25:54.704Z,1015.631
2017-09-03T19:28:49.754Z,1015.620
2017-09-03T19:31:44.646Z,1015.580
2017-09-03T19:34:39.634Z,1015.557
2017-09-03T19:37:34.603Z,1015.551
2017-09-03T19:40:29.640Z,1015.592
2017-09-03T19:43:24.592Z,1015.594
2017-09-03T19:46:19.547Z,1015.586
2017-09-03T19:49:14.503Z,1015.594
2017-09-03T19:52:09.504Z,1015.596
2017-09-03T19:55:04.518Z,1015.563
2017-09-03T19:57:59.540Z,1015.550
2017-09-03T20:00:54.460Z,1015.528
2017-09-03T20:03:49.374Z,1015.518
2017-09-03T20:06:44.498Z,1015.509
2017-09-03T20:09:39.345Z,1015.464
2017-09-03T20:12:34.321Z,1015.432
2017-09-03T20:15:29.297Z,1015.474
2017-09-03T20:18:24.302Z,1015.481
2017-09-03T20:21:19.224Z,1015.444
2017-09-03T20:24:14.111Z,1015.434
2017-09-03T20:27:09.093Z,1015.436
2017-09-03T20:30:04.044Z,1015.449
2017-09-03T20:32:58.950Z,1015.445
2017-09-03T20:35:53.934Z,1015.430
2017-09-03T20:38:48.907Z,1015.362
2017-09-03T20:41:43.830Z,1015.313
2017-09-03T20:44:38.719Z,1015.259
2017-09-03T20:47:33.674Z,1015.255
2017-09-03T20:50:28.611Z,1015.269
2017-09-03T20:53:23.538Z,1015.254
2017-09-03T20:57:03.674Z,1015.289
2017-09-03T20:59:49.968Z,1015.307
2017-09-03T21:09:48.609Z,1015.236
2017-09-03T21:12:42.803Z,1015.244
2017-09-03T21:15:37.413Z,1015.209
2017-09-03T21:18:32.157Z,1015.222
2017-09-03T21:22:00.922Z,1015.189
2017-09-03T21:24:47.821Z,1015.254
2017-09-03T21:27:42.474Z,1015.313
2017-09-03T21:38:43.310Z,1015.320
2017-09-03T21:41:27.139Z,1015.315
2017-09-03T21:44:21.242Z,1015.338
2017-09-03T21:47:15.692Z,1015.344
2017-09-03T21:50:10.338Z,1015.315
2017-09-03T22:02:24.387Z,1015.287
2017-09-03T22:05:18.318Z,1015.248
2017-09-03T22:08:12.865Z,1015.242
2017-09-03T22:11:07.581Z,1015.240
2017-09-03T22:14:02.329Z,1015.224
2017-09-03T22:22:02.287Z,1015.195
2017-09-03T22:24:46.191Z,1015.135
2017-09-03T22:27:40.266Z,1015.084
2017-09-03T22:30:34.864Z,1015.036
2017-09-03T22:33:29.700Z,1015.033
2017-09-03T22:36:24.581Z,1015.001
2017-09-03T22:46:06.741Z,1014.917
2017-09-03T22:51:44.911Z,1014.889
2017-09-03T22:54:39.589Z,1014.884
2017-09-03T22:57:34.323Z,1014.931
2017-09-03T23:05:45.563Z,1015.002
2017-09-03T23:08:29.406Z,1014.980
2017-09-03T23:11:23.476Z,1014.982
2017-09-03T23:14:17.972Z,1015.005
2017-09-03T23:17:12.628Z,1014.999
2017-09-03T23:20:07.368Z,1014.999
2017-09-03T23:28:41.210Z,1015.199
2017-09-03T23:31:25.061Z,1015.210
2017-09-03T23:34:19.407Z,1015.250
2017-09-03T23:37:14.012Z,1015.273
2017-09-03T23:40:08.753Z,1015.305
2017-09-03T23:43:03.577Z,1015.336
2017-09-03T23:56:07.691Z,1015.397
2017-09-03T23:59:02.183Z,1015.430
